Time;durP1;ratioP1;P1;durP2;ratioP2;P2;SDS_P1;SDS_P2;PMS_P1;PMS_P2;Temp;Humidity;BMP_temperature;BMP_pressure;BME280_temperature;BME280_humidity;BME280_pressure;Samples;Min_cycle;Max_cycle;Signal;HPM_P1;HPM_P2
2023/04/24 00:01:47;;;;;;;103.95;93.35;;;14.70;99.90;;;;;;4998998;28;20038;-86
2023/04/24 00:04:13;;;;;;;89.47;81.25;;;14.40;99.90;;;;;;5007599;28;20034;-86
2023/04/24 00:06:42;;;;;;;102.53;92.30;;;16.40;99.90;;;;;;4979682;28;20033;-86
2023/04/24 00:09:09;;;;;;;105.63;94.95;;;14.10;99.90;;;;;;5006729;28;20049;-86
2023/04/24 00:11:36;;;;;;;116.95;105.10;;;14.40;99.90;;;;;;4996594;28;20073;-86
2023/04/24 00:14:01;;;;;;;101.45;91.18;;;15.90;99.90;;;;;;5003833;28;20428;-86
2023/04/24 00:16:27;;;;;;;103.03;93.18;;;14.50;99.90;;;;;;4978886;28;20042;-86
2023/04/24 00:18:53;;;;;;;72.97;65.80;;;13.10;99.90;;;;;;4988891;28;20072;-86
2023/04/24 00:21:19;;;;;;;134.52;120.60;;;14.70;99.90;;;;;;4980490;28;20124;-86
2023/04/24 00:23:44;;;;;;;104.20;93.75;;;15.70;99.90;;;;;;5004612;28;20065;-86
2023/04/24 00:26:10;;;;;;;103.25;87.82;;;13.90;99.90;;;;;;5002803;28;20041;-86
2023/04/24 00:28:36;;;;;;;81.88;72.93;;;13.00;99.90;;;;;;4988870;28;20046;-86
2023/04/24 00:31:01;;;;;;;140.23;121.85;;;14.10;99.90;;;;;;4988937;28;20565;-86
2023/04/24 00:33:27;;;;;;;164.38;146.68;;;14.70;99.90;;;;;;4981098;28;20042;-86
2023/04/24 00:35:53;;;;;;;108.75;87.85;;;16.20;99.90;;;;;;4984609;28;20038;-86
2023/04/24 00:38:18;;;;;;;92.20;82.43;;;15.00;99.90;;;;;;4989983;28;20050;-86
2023/04/24 00:40:44;;;;;;;87.35;78.40;;;14.70;99.90;;;;;;4974287;28;20133;-87
2023/04/24 00:43:10;;;;;;;106.65;95.32;;;15.20;99.90;;;;;;5004998;28;20097;-87
2023/04/24 00:45:36;;;;;;;76.05;68.45;;;13.40;99.90;;;;;;4977935;28;20141;-87
2023/04/24 00:48:02;;;;;;;68.05;61.55;;;13.90;99.90;;;;;;4991460;28;20121;-87
2023/04/24 00:50:28;;;;;;;94.65;84.43;;;13.80;99.90;;;;;;5004457;28;20066;-86
2023/04/24 00:52:54;;;;;;;94.95;85.05;;;15.10;99.90;;;;;;4980338;28;20405;-86
2023/04/24 00:55:20;;;;;;;53.17;48.03;;;15.70;99.90;;;;;;5003703;28;20052;-87
2023/04/24 00:57:47;;;;;;;41.55;37.63;;;16.10;99.90;;;;;;4988942;28;20070;-86
2023/04/24 01:00:14;;;;;;;87.57;79.38;;;14.50;99.90;;;;;;4988485;28;20054;-87
2023/04/24 01:02:45;;;;;;;97.80;87.38;;;13.50;99.90;;;;;;4992157;28;20042;-87
2023/04/24 01:05:13;;;;;;;53.55;47.80;;;15.40;99.90;;;;;;4982563;28;20398;-87
2023/04/24 01:07:40;;;;;;;64.20;57.33;;;14.20;99.90;;;;;;4979800;28;20473;-87
2023/04/24 01:10:07;;;;;;;82.88;75.30;;;15.00;99.90;;;;;;4972404;28;20057;-87
2023/04/24 01:12:33;;;;;;;76.70;68.90;;;14.50;99.90;;;;;;5003131;28;20518;-87
2023/04/24 01:14:59;;;;;;;77.10;69.85;;;16.30;99.90;;;;;;4984585;28;20037;-87
2023/04/24 01:17:25;;;;;;;89.78;81.43;;;14.10;99.90;;;;;;4998353;28;20050;-87
2023/04/24 01:19:53;;;;;;;55.65;50.45;;;14.90;99.90;;;;;;4992223;28;20042;-87
2023/04/24 01:22:20;;;;;;;91.88;82.75;;;13.60;99.90;;;;;;5007103;28;20038;-86
2023/04/24 01:24:46;;;;;;;67.07;60.63;;;15.90;99.90;;;;;;5002463;28;20620;-87
2023/04/24 01:27:12;;;;;;;51.92;47.00;;;15.50;99.90;;;;;;4979355;28;20125;-87
2023/04/24 01:29:38;;;;;;;98.70;82.93;;;15.40;99.90;;;;;;5004735;28;20132;-87
2023/04/24 01:32:05;;;;;;;60.40;54.97;;;16.00;99.90;;;;;;4989441;28;20038;-87
2023/04/24 01:34:30;;;;;;;101.93;92.00;;;13.70;99.90;;;;;;4981748;28;20057;-87
2023/04/24 01:36:56;;;;;;;58.25;52.60;;;14.10;99.90;;;;;;5005672;28;20037;-87
2023/04/24 01:39:25;;;;;;;52.47;47.45;;;13.90;99.90;;;;;;5008356;28;20060;-87
2023/04/24 01:41:52;;;;;;;83.43;74.63;;;14.30;99.90;;;;;;4995042;28;20045;-86
2023/04/24 01:44:18;;;;;;;79.63;72.40;;;14.10;99.90;;;;;;4983338;28;20034;-87
2023/04/24 01:46:43;;;;;;;57.60;51.30;;;16.00;99.90;;;;;;4994695;28;20037;-87
2023/04/24 01:49:09;;;;;;;83.97;75.93;;;14.00;99.90;;;;;;4984510;28;20508;-86
2023/04/24 01:51:35;;;;;;;126.13;112.55;;;16.40;99.90;;;;;;4999057;28;20046;-87
2023/04/24 01:54:00;;;;;;;23.38;21.13;;;15.30;99.90;;;;;;5001263;28;20035;-86
2023/04/24 01:56:29;;;;;;;50.63;46.08;;;15.40;99.90;;;;;;4979678;28;20046;-86
2023/04/24 01:58:56;;;;;;;60.95;55.33;;;13.70;99.90;;;;;;5005542;28;20536;-86
2023/04/24 02:01:23;;;;;;;64.53;58.33;;;16.50;99.90;;;;;;4975892;28;20042;-86
2023/04/24 02:03:48;;;;;;;23.73;21.42;;;14.40;99.90;;;;;;4991580;28;20096;-86
2023/04/24 02:06:14;;;;;;;158.23;137.30;;;14.00;99.90;;;;;;5010334;28;20045;-86
2023/04/24 02:08:40;;;;;;;79.43;71.53;;;13.40;99.90;;;;;;5005913;28;20480;-86
2023/04/24 02:11:06;;;;;;;98.05;85.90;;;13.50;99.90;;;;;;5004653;28;20038;-86
2023/04/24 02:13:31;;;;;;;48.33;43.65;;;14.90;99.90;;;;;;4975353;28;20082;-86
2023/04/24 02:15:58;;;;;;;58.22;52.58;;;13.20;99.90;;;;;;4976440;28;20505;-86
2023/04/24 02:18:24;;;;;;;108.28;97.20;;;14.90;99.90;;;;;;5001190;28;20516;-87
2023/04/24 02:20:50;;;;;;;117.03;104.95;;;14.20;99.90;;;;;;4982467;28;20048;-86
2023/04/24 02:23:15;;;;;;;100.97;89.97;;;13.10;99.90;;;;;;4994521;28;20034;-86
2023/04/24 02:25:41;;;;;;;77.30;69.68;;;13.80;99.90;;;;;;4975514;28;20046;-87
2023/04/24 02:28:06;;;;;;;53.30;47.80;;;14.40;99.90;;;;;;4978533;28;20038;-86
2023/04/24 02:30:32;;;;;;;49.55;44.95;;;14.60;99.90;;;;;;4985308;28;20029;-86
2023/04/24 02:32:58;;;;;;;85.18;76.53;;;13.60;99.90;;;;;;4986980;28;20042;-86
2023/04/24 02:35:23;;;;;;;48.63;43.97;;;13.90;99.90;;;;;;4991221;28;20042;-86
2023/04/24 02:37:49;;;;;;;114.18;103.45;;;13.60;99.90;;;;;;4983472;28;20041;-86
2023/04/24 02:40:15;;;;;;;124.20;111.38;;;14.70;99.90;;;;;;4983828;28;20134;-86
2023/04/24 02:42:40;;;;;;;120.40;107.50;;;14.50;99.90;;;;;;4988421;28;20041;-86
2023/04/24 02:45:06;;;;;;;58.55;52.90;;;15.30;99.90;;;;;;4975090;28;20049;-86
2023/04/24 02:47:32;;;;;;;101.45;91.50;;;13.20;99.90;;;;;;5000031;28;20099;-86
2023/04/24 02:49:58;;;;;;;51.15;46.28;;;15.90;99.90;;;;;;5006564;28;20046;-86
2023/04/24 02:52:23;;;;;;;114.93;92.25;;;14.60;99.90;;;;;;4989861;28;20041;-86
2023/04/24 02:54:49;;;;;;;134.45;114.53;;;14.30;99.90;;;;;;4986056;28;20042;-86
2023/04/24 02:57:15;;;;;;;102.07;88.82;;;13.60;99.90;;;;;;4991035;28;20166;-86
2023/04/24 02:59:40;;;;;;;100.78;89.47;;;14.10;99.90;;;;;;4978112;28;20042;-87
2023/04/24 03:02:06;;;;;;;99.72;80.57;;;14.80;99.90;;;;;;4996031;28;20052;-87
2023/04/24 03:04:31;;;;;;;91.78;76.88;;;13.40;99.90;;;;;;5004356;28;20046;-86
2023/04/24 03:06:57;;;;;;;108.85;90.10;;;13.20;99.90;;;;;;4991222;28;20117;-87
2023/04/24 03:09:23;;;;;;;89.93;80.18;;;14.60;99.90;;;;;;4982496;28;20042;-87
2023/04/24 03:11:49;;;;;;;93.80;84.45;;;13.30;99.90;;;;;;5000076;28;20038;-87
2023/04/24 03:14:15;;;;;;;74.72;66.75;;;14.10;99.90;;;;;;4987745;28;20124;-87
2023/04/24 03:16:41;;;;;;;88.65;77.30;;;14.40;99.90;;;;;;4976763;28;20506;-87
2023/04/24 03:19:06;;;;;;;85.95;77.13;;;14.80;99.90;;;;;;4993419;28;20052;-87
2023/04/24 03:21:32;;;;;;;78.95;71.22;;;13.80;99.90;;;;;;5006492;28;20073;-87
2023/04/24 03:23:58;;;;;;;96.60;82.80;;;12.90;99.90;;;;;;4988243;28;20025;-87
2023/04/24 03:26:24;;;;;;;85.53;68.90;;;16.50;99.90;;;;;;4977937;28;20092;-87
2023/04/24 03:28:50;;;;;;;101.22;83.88;;;14.60;99.90;;;;;;5009612;28;20084;-87
2023/04/24 03:31:16;;;;;;;92.57;74.88;;;13.80;99.90;;;;;;4985139;28;20069;-86
2023/04/24 03:33:42;;;;;;;90.22;76.60;;;15.70;99.90;;;;;;5004711;28;20092;-86
2023/04/24 03:36:07;;;;;;;85.80;62.78;;;14.50;99.90;;;;;;4984837;28;20582;-86
2023/04/24 03:38:33;;;;;;;82.50;67.82;;;14.50;99.90;;;;;;4983192;28;20061;-86
2023/04/24 03:40:59;;;;;;;60.90;54.75;;;16.40;99.90;;;;;;4985999;28;20050;-86
2023/04/24 03:43:24;;;;;;;97.20;86.57;;;14.80;99.90;;;;;;4983352;28;20041;-86
2023/04/24 03:45:50;;;;;;;82.32;73.50;;;15.80;99.90;;;;;;5004669;28;20445;-86
2023/04/24 03:48:16;;;;;;;82.72;66.95;;;12.90;99.90;;;;;;4985798;28;20481;-86
2023/04/24 03:50:41;;;;;;;87.00;74.82;;;14.50;99.90;;;;;;4973048;28;20046;-86
2023/04/24 03:53:07;;;;;;;73.90;65.70;;;14.60;99.90;;;;;;4996493;28;20042;-86
2023/04/24 03:55:33;;;;;;;79.85;67.95;;;13.50;99.90;;;;;;5001473;28;20881;-86
2023/04/24 03:57:59;;;;;;;66.88;60.38;;;13.90;99.90;;;;;;4995807;28;20125;-86
2023/04/24 04:00:25;;;;;;;77.65;69.22;;;12.90;99.90;;;;;;4976886;28;20149;-86
2023/04/24 04:02:51;;;;;;;72.63;59.85;;;14.40;99.90;;;;;;4976891;28;20042;-86
2023/04/24 04:05:17;;;;;;;101.78;75.28;;;13.70;99.90;;;;;;4978233;28;20042;-86
2023/04/24 04:07:42;;;;;;;135.70;107.60;;;16.40;99.90;;;;;;5002035;28;20098;-86
2023/04/24 04:10:08;;;;;;;101.88;79.72;;;15.20;99.90;;;;;;5008806;28;20045;-86
2023/04/24 04:12:33;;;;;;;83.07;75.57;;;14.40;99.90;;;;;;4984884;28;20076;-87
2023/04/24 04:14:59;;;;;;;82.20;67.28;;;14.20;99.90;;;;;;4989173;28;20077;-87
2023/04/24 04:17:25;;;;;;;106.80;80.95;;;14.50;99.90;;;;;;4998815;28;20046;-86
2023/04/24 04:19:50;;;;;;;69.53;62.00;;;14.20;99.90;;;;;;4983905;28;20522;-86
2023/04/24 04:22:16;;;;;;;95.72;80.18;;;14.20;99.90;;;;;;4992155;28;20040;-86
2023/04/24 04:24:42;;;;;;;93.22;76.63;;;12.90;99.90;;;;;;4988231;28;20048;-86
2023/04/24 04:27:08;;;;;;;73.00;65.10;;;14.20;99.90;;;;;;4995623;28;20043;-86
2023/04/24 04:29:34;;;;;;;85.53;64.93;;;13.60;99.90;;;;;;4996877;28;20391;-86
2023/04/24 04:32:01;;;;;;;105.70;73.80;;;13.30;99.90;;;;;;4972951;28;20042;-86
2023/04/24 04:34:26;;;;;;;75.10;46.67;;;13.70;99.90;;;;;;4998305;28;20077;-86
2023/04/24 04:36:52;;;;;;;85.22;73.28;;;14.10;99.90;;;;;;4977509;28;20066;-86
2023/04/24 04:39:18;;;;;;;87.82;68.60;;;13.60;99.90;;;;;;4979242;28;20118;-86
2023/04/24 04:41:46;;;;;;;77.50;55.00;;;13.90;99.90;;;;;;5005072;28;20027;-86
2023/04/24 04:44:12;;;;;;;88.13;73.50;;;15.40;99.90;;;;;;4989390;28;20105;-87
2023/04/24 04:46:38;;;;;;;79.50;69.60;;;15.90;99.90;;;;;;4976404;28;20104;-87
2023/04/24 04:49:04;;;;;;;85.00;70.70;;;15.80;99.90;;;;;;5002482;28;20038;-86
2023/04/24 04:51:30;;;;;;;82.25;73.60;;;14.20;99.90;;;;;;4996065;28;20100;-87
2023/04/24 04:53:56;;;;;;;89.05;80.90;;;13.90;99.90;;;;;;5003246;28;20121;-86
2023/04/24 04:56:22;;;;;;;91.38;80.28;;;12.80;99.90;;;;;;4976629;28;20149;-86
2023/04/24 04:58:47;;;;;;;73.35;66.22;;;14.10;99.90;;;;;;5001763;28;20104;-87
2023/04/24 05:01:13;;;;;;;82.15;67.22;;;13.20;99.90;;;;;;4994944;28;20125;-86
2023/04/24 05:03:38;;;;;;;89.43;71.40;;;15.30;99.90;;;;;;4991446;28;20029;-86
2023/04/24 05:06:05;;;;;;;102.85;87.43;;;13.80;99.90;;;;;;4992066;28;20038;-86
2023/04/24 05:08:30;;;;;;;85.35;64.45;;;14.00;99.90;;;;;;5003582;28;20089;-87
2023/04/24 05:10:56;;;;;;;81.03;69.60;;;14.20;99.90;;;;;;4979115;28;20473;-86
2023/04/24 05:13:21;;;;;;;93.80;78.40;;;14.00;99.90;;;;;;4986729;28;20477;-86
2023/04/24 05:15:47;;;;;;;86.78;69.53;;;13.90;99.90;;;;;;4986877;28;20041;-86
2023/04/24 05:18:12;;;;;;;68.55;61.58;;;14.20;99.90;;;;;;4982079;28;20112;-86
2023/04/24 05:20:39;;;;;;;71.65;64.75;;;15.70;99.90;;;;;;4990804;28;20513;-87
2023/04/24 05:23:04;;;;;;;80.72;67.88;;;15.70;99.90;;;;;;5003412;28;20084;-87
2023/04/24 05:25:35;;;;;;;82.18;72.97;;;15.10;99.90;;;;;;4997836;28;20033;-87
2023/04/24 05:28:00;;;;;;;99.47;80.85;;;14.70;99.90;;;;;;5001914;28;20065;-86
2023/04/24 05:30:26;;;;;;;109.50;96.28;;;15.50;99.90;;;;;;5004273;28;20061;-87
2023/04/24 05:32:51;;;;;;;66.65;60.90;;;13.40;99.90;;;;;;5015589;28;20068;-87
2023/04/24 05:35:18;;;;;;;107.32;95.90;;;13.30;99.90;;;;;;5006321;28;20033;-86
2023/04/24 05:37:44;;;;;;;106.57;78.18;;;13.40;99.90;;;;;;5018419;28;20702;-87
2023/04/24 05:40:10;;;;;;;74.95;66.93;;;13.40;99.90;;;;;;4989544;28;20133;-86
2023/04/24 05:42:36;;;;;;;75.82;67.68;;;13.50;99.90;;;;;;5005561;28;20045;-86
2023/04/24 05:45:02;;;;;;;84.63;74.88;;;13.70;99.90;;;;;;5000284;28;20045;-86
2023/04/24 05:47:28;;;;;;;89.90;72.82;;;13.60;99.90;;;;;;4984590;28;20049;-86
2023/04/24 05:49:54;;;;;;;95.88;71.90;;;13.50;99.90;;;;;;4999774;28;20494;-86
2023/04/24 05:52:19;;;;;;;75.85;65.82;;;15.20;99.90;;;;;;4985391;28;20080;-86
2023/04/24 05:54:45;;;;;;;82.32;73.60;;;13.50;99.90;;;;;;5007887;28;20095;-86
2023/04/24 05:57:10;;;;;;;128.77;97.43;;;14.30;99.90;;;;;;5003850;28;20042;-86
2023/04/24 05:59:40;;;;;;;51.47;45.85;;;13.70;99.90;;;;;;4981313;28;20053;-86
2023/04/24 06:02:06;;;;;;;106.97;81.03;;;14.40;99.90;;;;;;4991299;28;20094;-85
2023/04/24 06:04:32;;;;;;;92.53;77.78;;;13.60;99.90;;;;;;4979350;28;20390;-85
2023/04/24 06:06:58;;;;;;;103.90;90.50;;;13.50;99.90;;;;;;4984525;28;20401;-85
2023/04/24 06:09:24;;;;;;;101.68;76.65;;;13.60;99.90;;;;;;4989911;28;20042;-85
2023/04/24 06:11:52;;;;;;;89.03;77.53;;;13.60;99.90;;;;;;5001230;28;20049;-85
2023/04/24 06:14:18;;;;;;;136.88;96.80;;;14.90;99.90;;;;;;4986630;28;20045;-85
2023/04/24 06:16:44;;;;;;;84.43;75.40;;;14.80;99.90;;;;;;4999463;28;20038;-86
2023/04/24 06:19:09;;;;;;;100.00;81.30;;;13.50;99.90;;;;;;4999936;28;20049;-86
2023/04/24 06:21:35;;;;;;;102.90;75.10;;;14.40;99.90;;;;;;4999977;28;20093;-86
2023/04/24 06:24:00;;;;;;;124.63;90.18;;;13.90;99.90;;;;;;4982492;28;20093;-86
2023/04/24 06:26:26;;;;;;;107.75;96.10;;;13.20;99.90;;;;;;4994384;28;20038;-86
2023/04/24 06:28:53;;;;;;;97.70;76.63;;;15.40;99.90;;;;;;4996109;28;20080;-86
2023/04/24 06:31:20;;;;;;;97.55;82.35;;;14.90;99.90;;;;;;5003702;28;20053;-86
2023/04/24 06:33:46;;;;;;;96.80;80.43;;;13.50;99.90;;;;;;4978088;28;20050;-86
2023/04/24 06:36:12;;;;;;;102.25;86.53;;;15.40;99.90;;;;;;4979398;28;20050;-86
2023/04/24 06:38:38;;;;;;;127.13;93.70;;;13.60;99.90;;;;;;4980652;28;20061;-87
2023/04/24 06:41:04;;;;;;;81.90;72.78;;;13.70;99.90;;;;;;4999546;28;20046;-86
2023/04/24 06:43:31;;;;;;;111.40;94.95;;;13.50;99.90;;;;;;4991144;28;20466;-87
2023/04/24 06:45:58;;;;;;;62.08;53.30;;;15.30;99.90;;;;;;4980462;28;20038;-85
2023/04/24 06:48:25;;;;;;;103.50;79.00;;;13.50;99.90;;;;;;4987875;28;20145;-86
2023/04/24 06:50:50;;;;;;;94.72;83.10;;;13.50;99.90;;;;;;4981505;28;20042;-86
2023/04/24 06:53:16;;;;;;;72.82;61.65;;;14.20;99.90;;;;;;4988218;28;20109;-86
2023/04/24 06:55:43;;;;;;;91.75;76.68;;;15.30;99.90;;;;;;4990805;28;20064;-86
2023/04/24 06:58:09;;;;;;;76.63;68.68;;;15.10;99.90;;;;;;4997079;28;20087;-86
2023/04/24 07:00:34;;;;;;;64.00;57.33;;;13.50;99.90;;;;;;4983086;28;20026;-86
2023/04/24 07:03:00;;;;;;;55.38;49.50;;;13.40;99.90;;;;;;4999671;28;20099;-87
2023/04/24 07:05:25;;;;;;;55.15;49.38;;;13.50;99.90;;;;;;4987363;28;20508;-86
2023/04/24 07:07:51;;;;;;;71.68;64.55;;;15.30;99.90;;;;;;5000386;28;20141;-86
2023/04/24 07:10:17;;;;;;;70.82;63.20;;;14.90;99.90;;;;;;4991166;28;20414;-86
2023/04/24 07:12:43;;;;;;;79.50;70.82;;;14.30;99.90;;;;;;4994318;28;20030;-87
2023/04/24 07:15:10;;;;;;;104.78;86.18;;;15.20;99.90;;;;;;5004828;28;20038;-86
2023/04/24 07:17:38;;;;;;;87.05;76.15;;;13.60;99.90;;;;;;5001175;28;20061;-86
2023/04/24 07:20:04;;;;;;;57.97;49.38;;;14.10;99.90;;;;;;5002754;28;20046;-86
2023/04/24 07:22:30;;;;;;;91.85;70.70;;;13.60;99.90;;;;;;4980547;28;20042;-87
2023/04/24 07:24:55;;;;;;;77.53;59.40;;;13.70;99.90;;;;;;4982458;28;20044;-87
2023/04/24 07:27:21;;;;;;;67.50;61.28;;;15.20;99.90;;;;;;4979722;28;20042;-87
2023/04/24 07:29:47;;;;;;;59.08;53.28;;;14.60;99.90;;;;;;4985517;28;20048;-86
2023/04/24 07:32:12;;;;;;;83.28;73.38;;;13.80;99.90;;;;;;5000843;28;20037;-86
2023/04/24 07:34:38;;;;;;;77.03;69.13;;;15.70;99.90;;;;;;5001588;28;20038;-86
2023/04/24 07:37:04;;;;;;;79.15;71.10;;;15.40;99.90;;;;;;4982754;28;20414;-86
2023/04/24 07:39:29;;;;;;;75.20;67.55;;;14.70;99.90;;;;;;4998609;28;20121;-86
2023/04/24 07:41:55;;;;;;;71.75;64.40;;;13.80;99.90;;;;;;5000086;28;20522;-86
2023/04/24 07:44:20;;;;;;;61.92;51.92;;;15.90;99.90;;;;;;5000810;28;20049;-87
2023/04/24 07:46:47;;;;;;;95.22;85.03;;;13.90;99.90;;;;;;4997971;28;20048;-86
2023/04/24 07:49:12;;;;;;;56.17;48.75;;;13.80;99.90;;;;;;5000832;28;20049;-86
2023/04/24 07:51:38;;;;;;;72.68;63.50;;;13.90;99.90;;;;;;4995240;28;20054;-86
2023/04/24 07:54:08;;;;;;;63.55;57.05;;;13.80;99.90;;;;;;4997414;28;20046;-86
2023/04/24 07:56:34;;;;;;;72.00;64.22;;;13.80;99.90;;;;;;4980196;28;20077;-86
2023/04/24 07:59:01;;;;;;;75.00;54.60;;;13.80;99.90;;;;;;5001549;28;20042;-85
2023/04/24 08:01:26;;;;;;;65.55;58.78;;;15.30;99.90;;;;;;5001178;28;20161;-85
2023/04/24 08:03:52;;;;;;;61.72;55.13;;;15.60;99.90;;;;;;4998303;28;20050;-86
2023/04/24 08:06:18;;;;;;;83.18;72.85;;;13.80;99.90;;;;;;4984894;28;20125;-87
2023/04/24 08:08:44;;;;;;;99.47;88.47;;;14.00;99.90;;;;;;4981604;28;20727;-86
2023/04/24 08:11:09;;;;;;;67.05;60.45;;;16.00;99.90;;;;;;4986328;28;20053;-86
2023/04/24 08:13:35;;;;;;;66.90;59.00;;;14.00;99.90;;;;;;4982627;28;20055;-86
2023/04/24 08:16:00;;;;;;;54.65;45.47;;;15.10;99.90;;;;;;4990922;28;20045;-88
2023/04/24 08:18:26;;;;;;;73.90;67.32;;;14.20;99.90;;;;;;4991071;28;20405;-87
2023/04/24 08:20:52;;;;;;;56.55;52.13;;;15.60;99.90;;;;;;4973089;28;20042;-87
2023/04/24 08:23:17;;;;;;;69.30;62.88;;;14.00;99.90;;;;;;4981179;28;20034;-89
2023/04/24 08:25:43;;;;;;;51.58;46.78;;;16.00;99.90;;;;;;4976859;28;20065;-89
2023/04/24 08:28:09;;;;;;;69.85;63.45;;;14.00;99.90;;;;;;5004117;28;20041;-90
2023/04/24 08:30:35;;;;;;;73.65;66.30;;;15.60;99.90;;;;;;4979672;28;20057;-90
2023/04/24 08:33:00;;;;;;;52.88;42.00;;;15.40;99.90;;;;;;4973108;28;20038;-89
2023/04/24 08:35:26;;;;;;;74.18;66.80;;;14.00;99.90;;;;;;4985889;28;20551;-88
2023/04/24 08:37:53;;;;;;;55.08;50.13;;;15.90;99.90;;;;;;4996576;28;20502;-85
2023/04/24 08:40:26;;;;;;;64.30;55.85;;;13.70;99.90;;;;;;4974818;28;20453;-84
2023/04/24 08:42:54;;;;;;;72.60;64.88;;;13.80;99.90;;;;;;4987455;28;20072;-85
2023/04/24 08:45:20;;;;;;;71.57;57.72;;;15.60;56.70;;;;;;4981346;28;20042;-85
2023/04/24 08:47:47;;;;;;;80.28;69.25;;;13.80;31.10;;;;;;4984598;28;20505;-85
2023/04/24 08:50:13;;;;;;;87.70;80.28;;;13.80;1.00;;;;;;5011184;28;20607;-85
2023/04/24 08:52:38;;;;;;;84.18;76.63;;;13.90;1.00;;;;;;4990039;28;20039;-85
2023/04/24 08:55:05;;;;;;;67.00;60.50;;;13.90;99.90;;;;;;5004435;28;20069;-87
2023/04/24 08:57:32;;;;;;;39.08;33.92;;;13.80;99.90;;;;;;4990693;28;20049;-86
2023/04/24 08:59:58;;;;;;;88.88;81.35;;;13.80;1.00;;;;;;5009077;28;20049;-86
2023/04/24 09:02:25;;;;;;;117.03;107.35;;;13.80;1.00;;;;;;4992069;28;20033;-85
2023/04/24 09:04:52;;;;;;;54.80;48.97;;;15.40;99.90;;;;;;5010228;28;20543;-84
2023/04/24 09:07:19;;;;;;;66.20;59.15;;;13.80;1.00;;;;;;4994301;28;20042;-85
2023/04/24 09:09:45;;;;;;;75.43;68.55;;;13.70;1.00;;;;;;4984413;28;20061;-85
2023/04/24 09:12:11;;;;;;;80.40;73.25;;;14.00;1.00;;;;;;5002934;28;20046;-85
2023/04/24 09:14:44;;;;;;;97.40;90.07;;;15.20;99.90;;;;;;4999148;28;20034;-86
2023/04/24 09:17:10;;;;;;;94.70;86.35;;;13.70;99.90;;;;;;5007570;28;20045;-85
2023/04/24 09:19:36;;;;;;;84.60;77.43;;;13.60;65.20;;;;;;4987287;28;20129;-84
2023/04/24 09:22:06;;;;;;;110.07;100.70;;;13.70;1.00;;;;;;4983975;28;20158;-85
2023/04/24 09:24:32;;;;;;;69.38;63.05;;;13.80;1.00;;;;;;4999061;28;20410;-86
2023/04/24 09:26:58;;;;;;;79.55;71.90;;;13.80;1.00;;;;;;4998013;28;20070;-85
2023/04/24 09:29:24;;;;;;;65.63;59.28;;;14.10;1.00;;;;;;5005422;28;20046;-86
2023/04/24 09:31:50;;;;;;;66.53;60.05;;;15.20;1.00;;;;;;4995490;28;20037;-86
2023/04/24 09:34:23;;;;;;;124.50;114.90;;;13.70;99.90;;;;;;4990427;28;20045;-86
2023/04/24 09:36:49;;;;;;;68.15;53.45;;;15.00;99.90;;;;;;4986658;28;20049;-86
2023/04/24 09:39:16;;;;;;;99.40;91.38;;;13.60;99.90;;;;;;4988714;28;20069;-86
2023/04/24 09:41:50;;;;;;;76.95;69.55;;;13.80;1.00;;;;;;4994632;28;20050;-85
2023/04/24 09:44:19;;;;;;;80.43;74.03;;;13.80;1.00;;;;;;5005882;28;20173;-85
2023/04/24 09:46:49;;;;;;;103.72;95.90;;;15.00;99.90;;;;;;5003962;28;20048;-86
2023/04/24 09:49:16;;;;;;;70.43;63.47;;;14.50;99.90;;;;;;4993417;28;20037;-86
2023/04/24 09:51:42;;;;;;;63.30;57.95;;;13.70;1.00;;;;;;5014745;28;20053;-86
2023/04/24 09:54:20;;;;;;;42.88;38.65;;;14.70;99.90;;;;;;4996799;28;20045;-85
2023/04/24 09:56:47;;;;;;;46.08;42.17;;;13.70;45.30;;;;;;4993861;28;20540;-85
2023/04/24 09:59:15;;;;;;;91.50;84.00;;;15.00;1.00;;;;;;4994925;28;20038;-86
2023/04/24 10:01:48;;;;;;;96.38;87.85;;;13.70;1.00;;;;;;4980006;28;20494;-84
2023/04/24 10:04:22;;;;;;;118.35;108.78;;;13.80;1.00;;;;;;5006434;28;20049;-85
2023/04/24 10:06:50;;;;;;;65.82;58.53;;;13.90;6.40;;;;;;4994785;28;20041;-84
2023/04/24 10:09:17;;;;;;;65.57;59.72;;;15.60;1.00;;;;;;4995167;28;20046;-84
2023/04/24 10:11:47;;;;;;;71.05;64.30;;;15.40;1.00;;;;;;4988156;28;20034;-84
2023/04/24 10:14:14;;;;;;;83.88;76.55;;;16.00;1.00;;;;;;4988040;28;20405;-84
2023/04/24 10:16:40;;;;;;;56.15;51.60;;;13.90;99.90;;;;;;4991787;28;20470;-84
2023/04/24 10:19:07;;;;;;;61.47;52.58;;;15.20;99.90;;;;;;4993158;28;20049;-86
2023/04/24 10:21:33;;;;;;;99.75;90.75;;;13.80;93.60;;;;;;4979517;28;20505;-86
2023/04/24 10:24:03;;;;;;;67.38;60.63;;;14.60;99.90;;;;;;4990475;28;20037;-85
2023/04/24 10:26:29;;;;;;;67.53;62.28;;;13.70;98.30;;;;;;5009380;28;20041;-85
2023/04/24 10:28:58;;;;;;;88.63;80.97;;;13.60;1.00;;;;;;5007497;28;20038;-86
2023/04/24 10:31:23;;;;;;;49.88;45.67;;;13.50;19.20;;;;;;5008086;28;20042;-86
2023/04/24 10:33:51;;;;;;;81.93;75.13;;;13.40;1.00;;;;;;4985882;28;20549;-86
2023/04/24 10:36:17;;;;;;;37.92;34.10;;;13.30;1.00;;;;;;4994540;28;20038;-85
2023/04/24 10:38:46;;;;;;;69.10;63.47;;;13.30;1.00;;;;;;5010569;28;20046;-85
2023/04/24 10:41:19;;;;;;;81.68;75.47;;;13.40;1.00;;;;;;5010601;28;20069;-85
2023/04/24 10:43:50;;;;;;;79.68;73.47;;;13.40;99.90;;;;;;4990209;28;20038;-85
2023/04/24 10:46:21;;;;;;;85.68;78.07;;;13.40;1.00;;;;;;5008812;28;20042;-85
2023/04/24 10:48:55;;;;;;;50.60;45.55;;;15.20;17.40;;;;;;4986877;28;20042;-86
2023/04/24 10:51:23;;;;;;;75.53;68.80;;;15.50;94.10;;;;;;5010511;28;20054;-85
2023/04/24 10:53:51;;;;;;;119.15;109.70;;;13.50;99.90;;;;;;4994248;28;20570;-86
2023/04/24 10:56:17;;;;;;;76.40;70.85;;;13.60;99.90;;;;;;5003782;28;20046;-86
2023/04/24 10:58:52;;;;;;;71.15;65.50;;;14.00;1.00;;;;;;5002052;28;20521;-86
2023/04/24 11:01:28;;;;;;;104.20;96.45;;;14.30;99.90;;;;;;5003809;28;20035;-85
2023/04/24 11:03:56;;;;;;;117.20;109.15;;;13.60;16.60;;;;;;4981861;28;20532;-86
2023/04/24 11:06:36;;;;;;;108.82;101.18;;;13.60;1.00;;;;;;5018897;28;20049;-85
2023/04/24 11:09:12;;;;;;;109.13;100.47;;;13.80;1.00;;;;;;5000548;28;20509;-85
2023/04/24 11:11:43;;;;;;;92.07;84.95;;;15.30;1.00;;;;;;4999074;28;20038;-84
2023/04/24 11:14:09;;;;;;;87.93;80.30;;;13.90;1.00;;;;;;4991352;28;20128;-84
2023/04/24 11:16:41;;;;;;;111.13;102.13;;;14.50;28.30;;;;;;5006926;28;20137;-85
2023/04/24 11:19:08;;;;;;;98.65;90.72;;;14.00;1.00;;;;;;5001545;28;20041;-85
2023/04/24 11:22:01;;;;;;;80.90;74.38;;;15.30;21.00;;;;;;4990428;28;20042;-85
2023/04/24 11:24:39;;;;;;;44.85;40.70;;;14.50;1.00;;;;;;5008112;28;20632;-84
2023/04/24 11:27:19;;;;;;;63.30;58.17;;;13.90;1.00;;;;;;4992140;28;20034;-85
2023/04/24 11:29:55;;;;;;;55.92;51.47;;;15.40;1.00;;;;;;4988796;28;20038;-84
2023/04/24 11:32:29;;;;;;;72.68;66.32;;;13.80;99.90;;;;;;4982004;28;20069;-85
2023/04/24 11:35:13;;;;;;;55.63;51.28;;;13.90;99.90;;;;;;4993150;28;20161;-84
2023/04/24 11:37:41;;;;;;;80.32;73.95;;;13.90;99.90;;;;;;5010233;28;20144;-83
2023/04/24 11:40:09;;;;;;;53.95;48.45;;;14.80;99.90;;;;;;4988994;28;20132;-84
2023/04/24 11:42:36;;;;;;;59.08;53.53;;;14.10;99.90;;;;;;5004223;28;20387;-83
2023/04/24 11:45:27;;;;;;;88.18;81.00;;;14.70;99.90;;;;;;4987373;28;20569;-82
2023/04/24 11:47:53;;;;;;;71.47;65.18;;;14.20;99.90;;;;;;4992607;28;20050;-84
2023/04/24 11:50:21;;;;;;;59.17;54.67;;;15.50;99.90;;;;;;4991460;28;20575;-86
2023/04/24 11:52:49;;;;;;;55.15;49.50;;;14.00;99.90;;;;;;4985976;28;20049;-84
2023/04/24 11:55:14;;;;;;;83.18;76.20;;;14.00;99.90;;;;;;5009117;28;20092;-84
2023/04/24 11:57:44;;;;;;;56.22;51.90;;;14.00;99.90;;;;;;4987150;28;20499;-86
2023/04/24 12:00:16;;;;;;;68.07;60.83;;;14.00;99.90;;;;;;4984697;28;20140;-84
2023/04/24 12:02:42;;;;;;;59.05;53.72;;;14.30;99.90;;;;;;4995000;28;20054;-85
2023/04/24 12:05:08;;;;;;;45.60;42.13;;;15.60;99.90;;;;;;5005938;28;20482;-84
2023/04/24 12:07:42;;;;;;;49.47;45.45;;;14.10;99.90;;;;;;5009058;28;20042;-85
2023/04/24 12:10:09;;;;;;;58.97;54.13;;;14.00;99.90;;;;;;4988055;28;20108;-84
2023/04/24 12:12:34;;;;;;;66.28;59.67;;;13.90;99.90;;;;;;4987490;28;20060;-85
2023/04/24 12:15:06;;;;;;;62.13;57.28;;;15.00;99.90;;;;;;4996094;28;20042;-84
2023/04/24 12:17:33;;;;;;;47.95;43.25;;;15.40;99.90;;;;;;4998804;28;20084;-84
2023/04/24 12:20:05;;;;;;;79.28;72.78;;;15.60;1.00;;;;;;5007692;28;20037;-84
2023/04/24 12:22:46;;;;;;;60.53;54.75;;;13.90;1.00;;;;;;4972708;28;20042;-86
2023/04/24 12:25:15;;;;;;;45.97;41.50;;;14.10;1.00;;;;;;4989232;28;20037;-84